sensor_id;sensor_type;location;lat;lon;timestamp;P1;durP1;ratioP1;P2;durP2;ratioP2
42148;SDS011;64624;47.208;8.706;2024-01-16T04:40:51;5.97;;;2.80;;
42148;SDS011;64624;47.208;8.706;2024-01-16T12:46:17;5.13;;;2.40;;
42148;SDS011;64624;47.208;8.706;2024-01-16T12:48:44;5.90;;;2.80;;
42148;SDS011;64624;47.208;8.706;2024-01-16T12:51:12;5.85;;;2.50;;
42148;SDS011;64624;47.208;8.706;2024-01-16T12:53:49;4.95;;;2.60;;
42148;SDS011;64624;47.208;8.706;2024-01-16T12:56:19;4.75;;;2.40;;
42148;SDS011;64624;47.208;8.706;2024-01-16T12:58:46;6.40;;;3.42;;
42148;SDS011;64624;47.208;8.706;2024-01-16T13:01:27;8.07;;;4.10;;
42148;SDS011;64624;47.208;8.706;2024-01-16T13:03:54;6.47;;;3.20;;
42148;SDS011;64624;47.208;8.706;2024-01-16T13:06:20;6.45;;;2.80;;
42148;SDS011;64624;47.208;8.706;2024-01-16T13:08:48;6.70;;;3.17;;
42148;SDS011;64624;47.208;8.706;2024-01-16T13:11:14;7.05;;;3.13;;
42148;SDS011;64624;47.208;8.706;2024-01-16T13:13:44;7.18;;;3.40;;
42148;SDS011;64624;47.208;8.706;2024-01-16T13:16:11;6.43;;;3.13;;
42148;SDS011;64624;47.208;8.706;2024-01-16T13:40:28;5.80;;;3.13;;
42148;SDS011;64624;47.208;8.706;2024-01-16T13:42:56;6.18;;;2.97;;
42148;SDS011;64624;47.208;8.706;2024-01-16T13:45:23;5.55;;;2.65;;
42148;SDS011;64624;47.208;8.706;2024-01-16T13:47:49;5.65;;;3.15;;
42148;SDS011;64624;47.208;8.706;2024-01-16T13:50:14;6.30;;;3.03;;
42148;SDS011;64624;47.208;8.706;2024-01-16T13:52:42;4.93;;;2.95;;
42148;SDS011;64624;47.208;8.706;2024-01-16T13:55:08;6.55;;;3.85;;
42148;SDS011;64624;47.208;8.706;2024-01-16T13:57:36;5.82;;;3.00;;
42148;SDS011;64624;47.208;8.706;2024-01-16T14:00:06;6.20;;;3.28;;
42148;SDS011;64624;47.208;8.706;2024-01-16T14:02:42;5.32;;;2.53;;
42148;SDS011;64624;47.208;8.706;2024-01-16T14:05:10;6.47;;;2.90;;
42148;SDS011;64624;47.208;8.706;2024-01-16T14:07:47;6.18;;;3.47;;
42148;SDS011;64624;47.208;8.706;2024-01-16T14:10:16;6.38;;;3.40;;
42148;SDS011;64624;47.208;8.706;2024-01-16T14:12:44;8.05;;;3.60;;
42148;SDS011;64624;47.208;8.706;2024-01-16T14:15:11;7.32;;;3.00;;
42148;SDS011;64624;47.208;8.706;2024-01-16T14:17:45;7.40;;;3.15;;
42148;SDS011;64624;47.208;8.706;2024-01-16T14:20:21;6.80;;;3.58;;
42148;SDS011;64624;47.208;8.706;2024-01-16T14:22:58;5.93;;;3.25;;
42148;SDS011;64624;47.208;8.706;2024-01-16T14:25:24;6.30;;;3.30;;
42148;SDS011;64624;47.208;8.706;2024-01-16T14:28:01;6.22;;;3.03;;
42148;SDS011;64624;47.208;8.706;2024-01-16T14:30:33;9.02;;;3.15;;
42148;SDS011;64624;47.208;8.706;2024-01-16T14:33:00;6.93;;;3.70;;
42148;SDS011;64624;47.208;8.706;2024-01-16T14:35:26;6.47;;;3.55;;
42148;SDS011;64624;47.208;8.706;2024-01-16T14:37:52;7.63;;;4.25;;
42148;SDS011;64624;47.208;8.706;2024-01-16T14:40:18;8.07;;;3.53;;
42148;SDS011;64624;47.208;8.706;2024-01-16T14:42:53;8.85;;;3.42;;
42148;SDS011;64624;47.208;8.706;2024-01-16T14:45:22;6.88;;;3.60;;
42148;SDS011;64624;47.208;8.706;2024-01-16T14:47:49;6.65;;;3.08;;
42148;SDS011;64624;47.208;8.706;2024-01-16T14:50:16;8.57;;;3.28;;
42148;SDS011;64624;47.208;8.706;2024-01-16T14:52:46;7.93;;;3.33;;
42148;SDS011;64624;47.208;8.706;2024-01-16T14:55:16;6.63;;;3.50;;
42148;SDS011;64624;47.208;8.706;2024-01-16T14:57:42;8.63;;;3.40;;
42148;SDS011;64624;47.208;8.706;2024-01-16T15:00:10;5.97;;;3.38;;
42148;SDS011;64624;47.208;8.706;2024-01-16T15:02:41;6.40;;;3.17;;
42148;SDS011;64624;47.208;8.706;2024-01-16T15:05:07;6.65;;;3.40;;
42148;SDS011;64624;47.208;8.706;2024-01-16T15:07:34;8.80;;;3.38;;
42148;SDS011;64624;47.208;8.706;2024-01-16T15:10:02;7.45;;;3.53;;
42148;SDS011;64624;47.208;8.706;2024-01-16T15:12:31;8.45;;;3.72;;
42148;SDS011;64624;47.208;8.706;2024-01-16T15:14:57;6.65;;;3.40;;
42148;SDS011;64624;47.208;8.706;2024-01-16T15:17:22;7.72;;;3.58;;
42148;SDS011;64624;47.208;8.706;2024-01-16T15:19:48;5.50;;;3.03;;
42148;SDS011;64624;47.208;8.706;2024-01-16T15:22:14;6.97;;;3.35;;
42148;SDS011;64624;47.208;8.706;2024-01-16T15:24:40;8.35;;;3.30;;
42148;SDS011;64624;47.208;8.706;2024-01-16T15:27:05;5.65;;;3.17;;
42148;SDS011;64624;47.208;8.706;2024-01-16T15:29:31;6.78;;;3.38;;
42148;SDS011;64624;47.208;8.706;2024-01-16T15:31:57;6.15;;;2.90;;
42148;SDS011;64624;47.208;8.706;2024-01-16T15:34:23;6.82;;;3.13;;
42148;SDS011;64624;47.208;8.706;2024-01-16T15:36:50;6.47;;;3.08;;
42148;SDS011;64624;47.208;8.706;2024-01-16T15:39:15;7.40;;;3.38;;
42148;SDS011;64624;47.208;8.706;2024-01-16T15:41:41;6.38;;;3.20;;
42148;SDS011;64624;47.208;8.706;2024-01-16T15:44:10;7.03;;;3.67;;
42148;SDS011;64624;47.208;8.706;2024-01-16T15:46:55;5.78;;;2.70;;
42148;SDS011;64624;47.208;8.706;2024-01-16T15:49:25;6.50;;;3.28;;
42148;SDS011;64624;47.208;8.706;2024-01-16T15:51:52;6.40;;;2.85;;
42148;SDS011;64624;47.208;8.706;2024-01-16T15:54:18;6.03;;;3.00;;
42148;SDS011;64624;47.208;8.706;2024-01-16T15:56:44;5.00;;;2.58;;
42148;SDS011;64624;47.208;8.706;2024-01-16T15:59:11;6.13;;;2.90;;
42148;SDS011;64624;47.208;8.706;2024-01-16T16:01:37;7.10;;;2.88;;
42148;SDS011;64624;47.208;8.706;2024-01-16T16:04:03;5.55;;;2.97;;
42148;SDS011;64624;47.208;8.706;2024-01-16T16:06:33;5.13;;;2.58;;
42148;SDS011;64624;47.208;8.706;2024-01-16T16:09:00;5.40;;;2.58;;
42148;SDS011;64624;47.208;8.706;2024-01-16T16:11:27;7.03;;;2.90;;
42148;SDS011;64624;47.208;8.706;2024-01-16T16:13:53;4.72;;;2.65;;
42148;SDS011;64624;47.208;8.706;2024-01-16T16:16:18;4.93;;;2.83;;
42148;SDS011;64624;47.208;8.706;2024-01-16T16:18:44;5.35;;;2.80;;
42148;SDS011;64624;47.208;8.706;2024-01-16T16:21:11;5.60;;;3.00;;
42148;SDS011;64624;47.208;8.706;2024-01-16T16:23:36;4.90;;;2.90;;
42148;SDS011;64624;47.208;8.706;2024-01-16T16:26:02;6.00;;;3.17;;
42148;SDS011;64624;47.208;8.706;2024-01-16T16:28:29;5.35;;;2.80;;
42148;SDS011;64624;47.208;8.706;2024-01-16T16:30:54;6.18;;;3.25;;
42148;SDS011;64624;47.208;8.706;2024-01-16T16:33:20;6.50;;;3.60;;
42148;SDS011;64624;47.208;8.706;2024-01-16T16:35:46;5.50;;;3.80;;
42148;SDS011;64624;47.208;8.706;2024-01-16T16:38:12;5.75;;;3.28;;
42148;SDS011;64624;47.208;8.706;2024-01-16T16:40:38;5.35;;;3.40;;
42148;SDS011;64624;47.208;8.706;2024-01-16T16:43:03;5.07;;;3.15;;
42148;SDS011;64624;47.208;8.706;2024-01-16T16:45:29;6.53;;;3.40;;
42148;SDS011;64624;47.208;8.706;2024-01-16T16:47:56;11.50;;;3.17;;
42148;SDS011;64624;47.208;8.706;2024-01-16T16:50:22;7.13;;;3.28;;
42148;SDS011;64624;47.208;8.706;2024-01-16T16:52:48;7.35;;;3.45;;
42148;SDS011;64624;47.208;8.706;2024-01-16T16:55:14;5.20;;;2.90;;
42148;SDS011;64624;47.208;8.706;2024-01-16T16:57:40;5.68;;;2.78;;
42148;SDS011;64624;47.208;8.706;2024-01-16T17:00:06;6.00;;;2.50;;
42148;SDS011;64624;47.208;8.706;2024-01-16T17:02:33;6.60;;;2.88;;
42148;SDS011;64624;47.208;8.706;2024-01-16T17:04:59;6.00;;;2.97;;
42148;SDS011;64624;47.208;8.706;2024-01-16T17:07:25;6.50;;;2.55;;
42148;SDS011;64624;47.208;8.706;2024-01-16T17:09:50;6.85;;;2.78;;
42148;SDS011;64624;47.208;8.706;2024-01-16T17:12:16;5.03;;;2.58;;
42148;SDS011;64624;47.208;8.706;2024-01-16T17:14:43;5.78;;;2.75;;
42148;SDS011;64624;47.208;8.706;2024-01-16T17:17:09;5.45;;;2.50;;
42148;SDS011;64624;47.208;8.706;2024-01-16T17:19:36;5.72;;;3.05;;
42148;SDS011;64624;47.208;8.706;2024-01-16T17:22:02;5.28;;;2.40;;
42148;SDS011;64624;47.208;8.706;2024-01-16T17:24:28;4.93;;;2.50;;
42148;SDS011;64624;47.208;8.706;2024-01-16T17:26:54;6.10;;;2.58;;
42148;SDS011;64624;47.208;8.706;2024-01-16T17:29:20;4.70;;;2.40;;
42148;SDS011;64624;47.208;8.706;2024-01-16T17:31:45;4.97;;;2.30;;
42148;SDS011;64624;47.208;8.706;2024-01-16T17:34:11;4.10;;;2.00;;
42148;SDS011;64624;47.208;8.706;2024-01-16T17:36:37;4.88;;;2.20;;
42148;SDS011;64624;47.208;8.706;2024-01-16T17:39:08;4.75;;;2.67;;
42148;SDS011;64624;47.208;8.706;2024-01-16T17:41:37;5.28;;;2.80;;
42148;SDS011;64624;47.208;8.706;2024-01-16T17:44:03;5.57;;;2.30;;
42148;SDS011;64624;47.208;8.706;2024-01-16T17:46:34;5.53;;;2.35;;
42148;SDS011;64624;47.208;8.706;2024-01-16T17:48:59;5.10;;;2.30;;
42148;SDS011;64624;47.208;8.706;2024-01-16T17:51:25;4.72;;;2.33;;
42148;SDS011;64624;47.208;8.706;2024-01-16T17:53:51;5.70;;;2.55;;
42148;SDS011;64624;47.208;8.706;2024-01-16T17:56:17;5.72;;;2.40;;
42148;SDS011;64624;47.208;8.706;2024-01-16T17:58:43;6.22;;;2.15;;
42148;SDS011;64624;47.208;8.706;2024-01-16T18:01:10;4.00;;;1.90;;
42148;SDS011;64624;47.208;8.706;2024-01-16T18:03:40;4.30;;;2.08;;
42148;SDS011;64624;47.208;8.706;2024-01-16T18:06:06;3.70;;;2.03;;
42148;SDS011;64624;47.208;8.706;2024-01-16T18:08:33;3.75;;;1.85;;
42148;SDS011;64624;47.208;8.706;2024-01-16T18:11:01;4.00;;;1.88;;
42148;SDS011;64624;47.208;8.706;2024-01-16T18:13:27;4.57;;;2.13;;
42148;SDS011;64624;47.208;8.706;2024-01-16T18:15:55;6.28;;;2.70;;
42148;SDS011;64624;47.208;8.706;2024-01-16T18:18:22;5.05;;;2.10;;
42148;SDS011;64624;47.208;8.706;2024-01-16T18:20:48;4.18;;;2.05;;
42148;SDS011;64624;47.208;8.706;2024-01-16T18:23:14;5.07;;;2.45;;
42148;SDS011;64624;47.208;8.706;2024-01-16T18:25:39;5.75;;;2.20;;
42148;SDS011;64624;47.208;8.706;2024-01-16T18:28:05;5.07;;;2.38;;
42148;SDS011;64624;47.208;8.706;2024-01-16T18:30:31;6.38;;;2.25;;
42148;SDS011;64624;47.208;8.706;2024-01-16T18:32:59;4.78;;;2.05;;
42148;SDS011;64624;47.208;8.706;2024-01-16T18:35:26;4.65;;;2.40;;
42148;SDS011;64624;47.208;8.706;2024-01-16T18:37:52;4.72;;;2.45;;
42148;SDS011;64624;47.208;8.706;2024-01-16T18:40:17;5.35;;;2.17;;
42148;SDS011;64624;47.208;8.706;2024-01-16T18:42:45;4.18;;;2.20;;
42148;SDS011;64624;47.208;8.706;2024-01-16T18:45:12;4.20;;;1.77;;
42148;SDS011;64624;47.208;8.706;2024-01-16T18:47:39;4.93;;;2.45;;
42148;SDS011;64624;47.208;8.706;2024-01-16T18:50:06;5.88;;;2.47;;
42148;SDS011;64624;47.208;8.706;2024-01-16T18:52:41;5.40;;;2.78;;
42148;SDS011;64624;47.208;8.706;2024-01-16T18:55:11;5.43;;;2.20;;
42148;SDS011;64624;47.208;8.706;2024-01-16T19:00:08;4.90;;;2.20;;
42148;SDS011;64624;47.208;8.706;2024-01-16T19:02:41;4.18;;;2.20;;
42148;SDS011;64624;47.208;8.706;2024-01-16T19:05:09;4.13;;;2.03;;
42148;SDS011;64624;47.208;8.706;2024-01-16T19:07:44;4.25;;;2.08;;
42148;SDS011;64624;47.208;8.706;2024-01-16T19:10:13;5.28;;;2.33;;
42148;SDS011;64624;47.208;8.706;2024-01-16T19:12:43;5.93;;;2.38;;
42148;SDS011;64624;47.208;8.706;2024-01-16T19:15:13;4.68;;;2.45;;
42148;SDS011;64624;47.208;8.706;2024-01-16T19:17:46;4.78;;;2.25;;
42148;SDS011;64624;47.208;8.706;2024-01-16T19:20:13;4.40;;;1.90;;
42148;SDS011;64624;47.208;8.706;2024-01-16T19:22:42;5.68;;;2.63;;
42148;SDS011;64624;47.208;8.706;2024-01-16T19:27:44;4.35;;;2.10;;
42148;SDS011;64624;47.208;8.706;2024-01-16T19:30:12;4.20;;;2.00;;
42148;SDS011;64624;47.208;8.706;2024-01-16T19:32:40;4.53;;;2.53;;
42148;SDS011;64624;47.208;8.706;2024-01-16T19:35:06;4.38;;;1.85;;
42148;SDS011;64624;47.208;8.706;2024-01-16T19:37:32;5.72;;;2.10;;
42148;SDS011;64624;47.208;8.706;2024-01-16T19:39:59;5.88;;;2.55;;
42148;SDS011;64624;47.208;8.706;2024-01-16T19:42:25;5.88;;;2.47;;
42148;SDS011;64624;47.208;8.706;2024-01-16T19:44:53;4.50;;;2.40;;
42148;SDS011;64624;47.208;8.706;2024-01-16T19:47:24;4.90;;;2.10;;
42148;SDS011;64624;47.208;8.706;2024-01-16T19:49:50;5.00;;;2.28;;
42148;SDS011;64624;47.208;8.706;2024-01-16T19:52:17;4.47;;;2.30;;
42148;SDS011;64624;47.208;8.706;2024-01-16T19:54:43;5.20;;;2.50;;
42148;SDS011;64624;47.208;8.706;2024-01-16T19:57:09;5.00;;;2.40;;
42148;SDS011;64624;47.208;8.706;2024-01-16T19:59:38;4.30;;;2.38;;
42148;SDS011;64624;47.208;8.706;2024-01-16T20:02:04;4.68;;;2.30;;
42148;SDS011;64624;47.208;8.706;2024-01-16T20:04:31;4.30;;;2.22;;
42148;SDS011;64624;47.208;8.706;2024-01-16T20:06:57;4.63;;;2.30;;
42148;SDS011;64624;47.208;8.706;2024-01-16T20:09:23;5.00;;;2.38;;
42148;SDS011;64624;47.208;8.706;2024-01-16T20:11:51;6.07;;;2.30;;
42148;SDS011;64624;47.208;8.706;2024-01-16T20:14:17;4.75;;;2.53;;
42148;SDS011;64624;47.208;8.706;2024-01-16T20:16:43;4.57;;;2.17;;
42148;SDS011;64624;47.208;8.706;2024-01-16T20:19:09;3.85;;;1.95;;
42148;SDS011;64624;47.208;8.706;2024-01-16T20:21:35;3.92;;;2.10;;
42148;SDS011;64624;47.208;8.706;2024-01-16T20:24:00;5.10;;;2.30;;
42148;SDS011;64624;47.208;8.706;2024-01-16T20:26:28;5.63;;;2.35;;
42148;SDS011;64624;47.208;8.706;2024-01-16T20:28:54;4.97;;;2.33;;
42148;SDS011;64624;47.208;8.706;2024-01-16T20:31:19;5.13;;;2.67;;
42148;SDS011;64624;47.208;8.706;2024-01-16T20:33:45;4.75;;;2.20;;
42148;SDS011;64624;47.208;8.706;2024-01-16T20:36:15;4.93;;;2.15;;
42148;SDS011;64624;47.208;8.706;2024-01-16T20:38:45;4.05;;;2.17;;
42148;SDS011;64624;47.208;8.706;2024-01-16T20:41:11;4.28;;;2.33;;
42148;SDS011;64624;47.208;8.706;2024-01-16T20:43:38;4.57;;;2.40;;
42148;SDS011;64624;47.208;8.706;2024-01-16T20:46:07;4.80;;;2.20;;
42148;SDS011;64624;47.208;8.706;2024-01-16T20:48:33;5.93;;;2.70;;
42148;SDS011;64624;47.208;8.706;2024-01-16T20:50:59;5.05;;;2.88;;
42148;SDS011;64624;47.208;8.706;2024-01-16T20:53:26;5.85;;;2.85;;
42148;SDS011;64624;47.208;8.706;2024-01-16T20:55:53;5.38;;;2.72;;
42148;SDS011;64624;47.208;8.706;2024-01-16T20:58:19;5.40;;;2.70;;
42148;SDS011;64624;47.208;8.706;2024-01-16T21:00:45;5.65;;;2.80;;
42148;SDS011;64624;47.208;8.706;2024-01-16T21:03:13;5.53;;;2.50;;
42148;SDS011;64624;47.208;8.706;2024-01-16T21:05:43;5.63;;;2.78;;
42148;SDS011;64624;47.208;8.706;2024-01-16T21:08:11;4.40;;;2.67;;
42148;SDS011;64624;47.208;8.706;2024-01-16T21:10:37;5.38;;;2.70;;
42148;SDS011;64624;47.208;8.706;2024-01-16T21:13:03;5.38;;;2.67;;
42148;SDS011;64624;47.208;8.706;2024-01-16T21:15:29;5.28;;;2.47;;
42148;SDS011;64624;47.208;8.706;2024-01-16T21:17:58;4.55;;;2.58;;
42148;SDS011;64624;47.208;8.706;2024-01-16T21:20:24;5.93;;;3.08;;
42148;SDS011;64624;47.208;8.706;2024-01-16T21:22:51;6.97;;;3.53;;
42148;SDS011;64624;47.208;8.706;2024-01-16T21:25:19;5.43;;;3.17;;
42148;SDS011;64624;47.208;8.706;2024-01-16T21:27:48;6.35;;;3.25;;
42148;SDS011;64624;47.208;8.706;2024-01-16T21:30:14;5.43;;;2.85;;
42148;SDS011;64624;47.208;8.706;2024-01-16T21:32:40;5.10;;;2.67;;
42148;SDS011;64624;47.208;8.706;2024-01-16T21:35:07;5.28;;;2.85;;
42148;SDS011;64624;47.208;8.706;2024-01-16T21:37:35;5.00;;;2.42;;
42148;SDS011;64624;47.208;8.706;2024-01-16T21:40:01;5.07;;;2.65;;
42148;SDS011;64624;47.208;8.706;2024-01-16T21:42:27;6.78;;;2.50;;
42148;SDS011;64624;47.208;8.706;2024-01-16T21:44:53;5.50;;;2.63;;
42148;SDS011;64624;47.208;8.706;2024-01-16T21:47:20;5.13;;;2.70;;
42148;SDS011;64624;47.208;8.706;2024-01-16T21:49:46;5.85;;;2.70;;
42148;SDS011;64624;47.208;8.706;2024-01-16T21:52:12;4.82;;;2.90;;
42148;SDS011;64624;47.208;8.706;2024-01-16T21:54:39;5.75;;;2.40;;
42148;SDS011;64624;47.208;8.706;2024-01-16T21:57:06;7.78;;;2.50;;
42148;SDS011;64624;47.208;8.706;2024-01-16T21:59:32;4.80;;;2.38;;
42148;SDS011;64624;47.208;8.706;2024-01-16T22:01:58;4.80;;;2.53;;
42148;SDS011;64624;47.208;8.706;2024-01-16T22:04:24;6.97;;;2.63;;
42148;SDS011;64624;47.208;8.706;2024-01-16T22:06:50;5.75;;;3.42;;
42148;SDS011;64624;47.208;8.706;2024-01-16T22:09:16;5.05;;;2.45;;
42148;SDS011;64624;47.208;8.706;2024-01-16T22:11:46;7.05;;;3.15;;
42148;SDS011;64624;47.208;8.706;2024-01-16T22:14:13;5.57;;;2.90;;
42148;SDS011;64624;47.208;8.706;2024-01-16T22:16:39;4.95;;;2.53;;
42148;SDS011;64624;47.208;8.706;2024-01-16T22:19:06;5.43;;;2.72;;
42148;SDS011;64624;47.208;8.706;2024-01-16T22:21:33;5.68;;;2.75;;
42148;SDS011;64624;47.208;8.706;2024-01-16T22:23:59;5.18;;;2.53;;
42148;SDS011;64624;47.208;8.706;2024-01-16T22:26:25;5.72;;;2.85;;
42148;SDS011;64624;47.208;8.706;2024-01-16T22:28:51;6.00;;;2.67;;
42148;SDS011;64624;47.208;8.706;2024-01-16T22:31:16;5.20;;;2.67;;
42148;SDS011;64624;47.208;8.706;2024-01-16T22:33:42;5.90;;;2.90;;
42148;SDS011;64624;47.208;8.706;2024-01-16T22:36:08;5.40;;;2.85;;
42148;SDS011;64624;47.208;8.706;2024-01-16T22:38:38;6.75;;;2.88;;
42148;SDS011;64624;47.208;8.706;2024-01-16T22:43:30;5.90;;;3.03;;
42148;SDS011;64624;47.208;8.706;2024-01-16T22:45:57;6.63;;;3.70;;
42148;SDS011;64624;47.208;8.706;2024-01-16T22:48:24;4.32;;;2.45;;
42148;SDS011;64624;47.208;8.706;2024-01-16T22:50:49;6.53;;;3.40;;
42148;SDS011;64624;47.208;8.706;2024-01-16T22:53:16;5.80;;;2.75;;
42148;SDS011;64624;47.208;8.706;2024-01-16T22:55:42;5.57;;;3.25;;
42148;SDS011;64624;47.208;8.706;2024-01-16T22:58:08;5.97;;;2.75;;
42148;SDS011;64624;47.208;8.706;2024-01-16T23:00:35;5.68;;;2.58;;
42148;SDS011;64624;47.208;8.706;2024-01-16T23:03:05;4.35;;;2.33;;
42148;SDS011;64624;47.208;8.706;2024-01-16T23:05:40;6.10;;;2.85;;
42148;SDS011;64624;47.208;8.706;2024-01-16T23:08:09;4.85;;;2.88;;
42148;SDS011;64624;47.208;8.706;2024-01-16T23:10:35;6.18;;;2.72;;
42148;SDS011;64624;47.208;8.706;2024-01-16T23:13:01;6.63;;;2.80;;
42148;SDS011;64624;47.208;8.706;2024-01-16T23:15:27;5.75;;;2.90;;
42148;SDS011;64624;47.208;8.706;2024-01-16T23:17:53;5.82;;;2.75;;
42148;SDS011;64624;47.208;8.706;2024-01-16T23:20:19;4.90;;;2.63;;
42148;SDS011;64624;47.208;8.706;2024-01-16T23:22:45;4.68;;;2.35;;
42148;SDS011;64624;47.208;8.706;2024-01-16T23:25:12;6.10;;;2.95;;
42148;SDS011;64624;47.208;8.706;2024-01-16T23:27:38;6.18;;;2.60;;
42148;SDS011;64624;47.208;8.706;2024-01-16T23:30:06;5.07;;;2.50;;
42148;SDS011;64624;47.208;8.706;2024-01-16T23:32:33;6.35;;;2.78;;
42148;SDS011;64624;47.208;8.706;2024-01-16T23:34:59;5.25;;;2.95;;
42148;SDS011;64624;47.208;8.706;2024-01-16T23:37:25;5.55;;;2.85;;
42148;SDS011;64624;47.208;8.706;2024-01-16T23:39:53;6.38;;;3.40;;
42148;SDS011;64624;47.208;8.706;2024-01-16T23:42:22;5.38;;;2.75;;
42148;SDS011;64624;47.208;8.706;2024-01-16T23:44:49;4.88;;;2.85;;
42148;SDS011;64624;47.208;8.706;2024-01-16T23:47:17;5.47;;;2.80;;
42148;SDS011;64624;47.208;8.706;2024-01-16T23:49:43;5.18;;;2.83;;
42148;SDS011;64624;47.208;8.706;2024-01-16T23:52:10;5.90;;;2.70;;
42148;SDS011;64624;47.208;8.706;2024-01-16T23:54:38;5.25;;;2.65;;
42148;SDS011;64624;47.208;8.706;2024-01-16T23:57:05;5.15;;;2.85;;
42148;SDS011;64624;47.208;8.706;2024-01-16T23:59:31;4.40;;;2.33;;
